Time;durP1;ratioP1;P1;durP2;ratioP2;P2;SDS_P1;SDS_P2;PMS_P1;PMS_P2;Temp;Humidity;BMP_temperature;BMP_pressure;BME280_temperature;BME280_humidity;BME280_pressure;Samples;Min_cycle;Max_cycle;Signal;HPM_P1;HPM_P2
2023/07/31 00:54:32;;;;;;;5.00;4.20;;;;;;;17.08;74.83;99883.41;215385;1263;74636;-73
2023/07/31 01:48:21;;;;;;;;;;;;;;;;;;;;;
2023/07/31 02:07:05;;;;;;;4.20;3.10;;;;;;;16.20;76.08;99898.51;217269;1248;72814;-73
2023/07/31 02:12:11;;;;;;;4.20;2.80;;;;;;;16.15;76.09;99902.10;218745;1248;61269;-74
2023/07/31 04:24:09;;;;;;;3.40;3.10;;;;;;;17.07;78.01;99947.52;216440;1250;61286;-73
2023/07/31 05:22:44;;;;;;;3.20;2.60;;;;;;;17.72;74.49;99976.14;217301;1254;61334;-74
2023/07/31 05:34:35;;;;;;;4.40;2.50;;;;;;;17.88;73.86;99981.39;217119;1254;73966;-74
2023/07/31 05:46:55;;;;;;;5.60;3.30;;;;;;;18.35;73.37;99985.63;215479;1264;68070;-74
2023/07/31 05:52:48;;;;;;;5.90;3.10;;;;;;;18.54;72.69;99992.14;217116;1252;61270;-73
2023/07/31 06:05:11;;;;;;;;;;;;;;;;;;;;;
2023/07/31 06:24:30;;;;;;;5.10;2.50;;;;;;;19.47;70.21;100015.45;206204;1285;5853020;-73
2023/07/31 06:37:20;;;;;;;7.30;2.90;;;;;;;19.61;69.21;100018.70;212764;1279;71249;-73
2023/07/31 07:01:12;;;;;;;4.50;2.90;;;;;;;19.42;70.24;100034.25;210119;1285;72177;-72
2023/07/31 07:06:33;;;;;;;4.00;3.50;;;;;;;19.51;70.05;100036.95;211154;1283;74706;-72
2023/07/31 07:12:10;;;;;;;8.90;3.90;;;;;;;19.54;69.78;100038.64;211372;1281;60158;-73
2023/07/31 07:18:12;;;;;;;3.60;2.70;;;;;;;19.62;69.66;100040.85;211611;1277;66329;-72
2023/07/31 07:23:34;;;;;;;4.40;3.00;;;;;;;19.68;69.31;100036.80;211154;1283;59864;-73
2023/07/31 07:45:28;;;;;;;5.30;3.00;;;;;;;20.79;67.49;100040.67;214058;1270;66682;-74
2023/07/31 07:50:33;;;;;;;3.70;3.00;;;;;;;21.37;66.32;100040.49;214083;1268;60317;-74
2023/07/31 07:55:34;;;;;;;3.90;3.10;;;;;;;21.71;65.44;100042.52;214832;1260;73410;-73
2023/07/31 08:21:06;;;;;;;3.70;2.90;;;;;;;23.64;60.33;100030.63;212235;1276;59689;-75
2023/07/31 08:26:37;;;;;;;6.10;2.70;;;;;;;23.58;59.91;100027.16;212294;1279;72392;-74
2023/07/31 08:50:57;;;;;;;4.20;2.60;;;;;;;25.03;56.45;100025.92;213376;1265;61378;-74
2023/07/31 08:55:54;;;;;;;5.30;2.30;;;;;;;24.47;56.08;100021.39;214254;1266;73352;-73
2023/07/31 09:00:54;;;;;;;4.00;2.20;;;;;;;23.98;56.70;100017.63;214311;1268;71121;-74
2023/07/31 09:05:48;;;;;;;2.80;2.10;;;;;;;23.90;56.95;100017.50;214520;1263;60332;-73
2023/07/31 09:11:13;;;;;;;4.40;2.40;;;;;;;23.86;56.35;100017.16;214176;1269;67261;-75
2023/07/31 09:16:52;;;;;;;;;;;;;;;23.97;56.00;100020.54;214145;1266;59664;-74
2023/07/31 09:21:50;;;;;;;5.00;2.30;;;;;;;24.91;54.06;100017.13;214413;1262;73624;-73
2023/07/31 09:26:43;;;;;;;3.00;2.20;;;;;;;25.14;53.91;100009.16;214972;1259;73561;-74
2023/07/31 09:32:49;;;;;;;;;;;;;;;;;;;;;
2023/07/31 09:39:17;;;;;;;2.80;2.00;;;;;;;25.74;51.40;100017.94;215204;1258;68499;-72
2023/07/31 09:44:48;;;;;;;5.90;2.60;;;;;;;26.37;49.14;100022.83;214685;1259;60079;-73
2023/07/31 09:50:17;;;;;;;3.10;2.20;;;;;;;26.78;48.94;100024.08;214561;1259;59739;-74
2023/07/31 09:55:13;;;;;;;4.90;2.80;;;;;;;27.59;47.35;100013.95;214992;1259;71868;-74
2023/07/31 10:00:09;;;;;;;4.80;2.40;;;;;;;29.88;43.46;100014.13;215006;1260;59666;-74
2023/07/31 10:05:20;;;;;;;3.60;2.10;;;;;;;30.97;41.83;100008.27;214971;1260;65574;-74
2023/07/31 10:11:05;;;;;;;2.10;1.60;;;;;;;33.19;39.15;100004.63;214530;1259;59657;-74
2023/07/31 10:16:05;;;;;;;2.20;1.60;;;;;;;34.66;36.27;100002.10;214456;1264;72338;-73
2023/07/31 10:21:01;;;;;;;3.30;2.00;;;;;;;34.69;35.44;100004.66;214366;1263;73869;-74
2023/07/31 10:25:59;;;;;;;2.00;1.80;;;;;;;33.00;35.36;100005.81;213981;1267;59851;-75
2023/07/31 10:43:13;;;;;;;;;;;;;;;;;;;;;
2023/07/31 10:49:03;;;;;;;2.60;2.20;;;;;;;29.31;38.88;100002.42;212808;1277;71324;-74
2023/07/31 10:54:12;;;;;;;2.90;2.00;;;;;;;29.68;39.78;99997.14;213821;1270;59677;-73
2023/07/31 10:59:17;;;;;;;2.40;2.10;;;;;;;31.69;38.66;99989.98;213953;1268;67060;-73
2023/07/31 11:04:13;;;;;;;3.80;2.00;;;;;;;32.95;36.20;99986.64;213961;1268;59636;-73
2023/07/31 11:09:06;;;;;;;2.80;2.30;;;;;;;32.08;36.58;99989.55;213997;1268;73972;-74
2023/07/31 11:14:18;;;;;;;6.60;2.30;;;;;;;30.36;37.57;99996.40;215153;1254;59749;-74
2023/07/31 11:24:54;;;;;;;3.00;2.10;;;;;;;30.78;37.83;99988.54;215490;1256;68021;-74
2023/07/31 11:36:05;;;;;;;4.10;1.80;;;;;;;30.19;38.03;99989.71;215900;1255;71748;-73
2023/07/31 11:42:16;;;;;;;3.40;2.00;;;;;;;30.18;37.54;99987.98;215813;1256;62337;-73
2023/07/31 11:47:16;;;;;;;3.70;2.00;;;;;;;29.32;37.97;99983.45;214591;1262;59967;-73
2023/07/31 11:52:10;;;;;;;1.90;1.50;;;;;;;29.17;38.10;99978.16;214869;1262;67080;-73
2023/07/31 12:11:06;;;;;;;4.50;2.00;;;;;;;27.33;39.58;99970.10;213698;1267;71311;-74
2023/07/31 12:16:49;;;;;;;2.50;1.60;;;;;;;27.21;39.59;99971.59;214389;1262;59724;-74
2023/07/31 12:22:20;;;;;;;3.20;1.80;;;;;;;26.98;39.29;99963.27;214850;1255;67861;-75
2023/07/31 12:27:16;;;;;;;5.00;1.90;;;;;;;26.62;39.57;99969.25;215558;1254;59648;-74
2023/07/31 12:32:24;;;;;;;3.50;2.00;;;;;;;26.41;39.85;99965.90;215680;1255;73081;-75
2023/07/31 12:37:22;;;;;;;2.10;1.60;;;;;;;26.49;40.30;99955.46;215566;1255;71522;-75
2023/07/31 12:42:18;;;;;;;2.00;1.20;;;;;;;26.46;39.55;99952.29;215724;1255;59664;-74
2023/07/31 12:47:11;;;;;;;5.30;1.80;;;;;;;26.17;39.56;99957.19;215370;1260;68785;-74
2023/07/31 12:52:04;;;;;;;1.90;1.60;;;;;;;26.01;39.87;99954.95;215638;1255;59744;-74
2023/07/31 12:56:57;;;;;;;2.60;1.90;;;;;;;25.95;39.67;99953.58;215643;1255;73009;-74
2023/07/31 13:01:51;;;;;;;2.90;1.50;;;;;;;25.86;39.68;99951.20;215591;1255;71877;-74
2023/07/31 13:06:44;;;;;;;5.70;1.90;;;;;;;25.81;39.92;99943.84;215685;1254;59806;-74
2023/07/31 13:11:37;;;;;;;3.00;1.70;;;;;;;25.82;40.03;99935.27;215539;1255;67222;-74
2023/07/31 13:16:30;;;;;;;2.80;1.80;;;;;;;25.88;40.24;99932.27;215728;1254;59597;-74
2023/07/31 13:22:11;;;;;;;5.80;2.40;;;;;;;26.02;39.94;99931.13;215682;1255;73686;-75
2023/07/31 13:39:12;;;;;;;2.20;1.50;;;;;;;26.18;40.42;99914.32;215630;1255;65995;-73
2023/07/31 13:44:11;;;;;;;2.10;1.60;;;;;;;26.17;40.40;99906.59;215631;1256;59265;-74
2023/07/31 13:49:07;;;;;;;1.60;1.20;;;;;;;27.03;39.86;99901.25;215448;1254;72375;-74
2023/07/31 13:54:18;;;;;;;4.00;2.00;;;;;;;27.50;39.14;99904.29;215524;1254;74874;-74
2023/07/31 13:59:25;;;;;;;5.30;2.00;;;;;;;27.83;38.62;99903.48;215776;1254;60087;-75
2023/07/31 14:04:55;;;;;;;3.30;1.90;;;;;;;27.99;38.07;99892.08;215580;1259;67954;-75
2023/07/31 14:16:49;;;;;;;2.00;1.50;;;;;;;27.40;38.10;99897.45;215619;1255;74397;-74
2023/07/31 14:21:42;;;;;;;6.30;2.00;;;;;;;26.82;38.65;99888.16;215560;1258;73867;-73
2023/07/31 14:53:55;;;;;;;3.30;1.60;;;;;;;25.30;40.53;99873.70;212391;1277;71312;-74
2023/07/31 14:58:53;;;;;;;5.20;1.90;;;;;;;25.54;40.76;99871.24;212429;1278;62149;-74
2023/07/31 15:03:52;;;;;;;3.20;1.80;;;;;;;25.84;40.51;99864.67;212230;1278;68225;-74
2023/07/31 18:25:06;;;;;;;5.80;2.50;;;;;;;21.27;54.47;99875.72;213513;1271;177628;-74
2023/07/31 18:30:05;;;;;;;4.30;2.20;;;;;;;21.27;53.55;99877.84;214532;1263;72571;-73
2023/07/31 18:35:29;;;;;;;3.60;2.10;;;;;;;21.30;53.21;99878.21;215041;1259;73372;-72
2023/07/31 18:47:13;;;;;;;4.80;2.40;;;;;;;21.32;53.25;99880.98;215584;1255;66231;-72
2023/07/31 19:03:37;;;;;;;3.10;2.00;;;;;;;20.97;54.62;99883.25;215382;1259;73117;-73
2023/07/31 19:09:19;;;;;;;5.40;2.40;;;;;;;20.74;55.14;99883.98;215696;1258;60425;-73
2023/07/31 19:14:47;;;;;;;2.80;2.30;;;;;;;20.47;55.14;99883.89;215314;1258;67540;-73
2023/07/31 19:20:00;;;;;;;3.20;2.10;;;;;;;20.29;55.25;99880.31;215489;1255;60428;-72
2023/07/31 19:25:20;;;;;;;2.60;2.10;;;;;;;20.14;55.99;99886.32;216100;1254;73644;-70
2023/07/31 19:30:33;;;;;;;2.90;2.20;;;;;;;19.99;56.18;99882.29;215664;1255;71749;-72
2023/07/31 19:36:09;;;;;;;2.20;2.00;;;;;;;19.86;56.86;99883.08;215592;1258;60487;-72
2023/07/31 19:41:08;;;;;;;3.10;2.30;;;;;;;19.78;57.30;99884.92;215382;1257;66835;-72
2023/07/31 19:46:17;;;;;;;4.70;2.70;;;;;;;19.74;57.59;99888.58;215787;1260;60709;-73
2023/07/31 19:51:38;;;;;;;6.30;2.50;;;;;;;19.72;57.83;99887.40;215554;1256;72397;-72
2023/07/31 19:56:49;;;;;;;4.20;2.30;;;;;;;19.68;58.02;99892.27;215511;1256;71750;-73
2023/07/31 20:02:13;;;;;;;4.00;2.60;;;;;;;19.60;58.10;99889.90;215516;1255;60398;-73
2023/07/31 20:07:21;;;;;;;3.40;2.50;;;;;;;19.54;58.56;99893.26;215499;1256;67785;-72
2023/07/31 20:12:25;;;;;;;5.30;3.30;;;;;;;19.47;58.98;99892.09;215362;1257;61236;-72
2023/07/31 20:17:28;;;;;;;5.80;2.60;;;;;;;19.36;58.96;99889.64;215407;1259;74845;-72
2023/07/31 20:22:35;;;;;;;;;;;;;;;19.24;59.39;99887.73;215210;1259;74159;-73
2023/07/31 20:27:56;;;;;;;5.40;3.00;;;;;;;19.16;59.82;99882.89;215233;1258;59461;-72
2023/07/31 20:38:29;;;;;;;6.40;3.40;;;;;;;19.11;60.52;99867.24;215349;1255;60502;-73
2023/07/31 20:43:23;;;;;;;5.00;3.10;;;;;;;19.10;60.95;99850.43;215458;1258;73854;-73
2023/07/31 20:48:19;;;;;;;2.80;2.60;;;;;;;19.06;61.33;99842.11;215872;1256;72633;-72
2023/07/31 20:53:18;;;;;;;4.30;3.20;;;;;;;19.05;61.79;99840.55;215595;1255;61231;-72
2023/07/31 20:58:13;;;;;;;4.70;3.20;;;;;;;19.05;62.26;99830.02;215442;1255;68127;-73
2023/07/31 21:03:14;;;;;;;4.30;3.10;;;;;;;19.02;62.30;99818.15;215346;1260;60477;-72
2023/07/31 21:08:18;;;;;;;6.40;3.50;;;;;;;19.01;62.47;99810.84;215599;1257;76096;-73
2023/07/31 21:13:15;;;;;;;4.40;3.00;;;;;;;18.97;62.74;99808.49;215713;1260;75309;-73
2023/07/31 21:18:12;;;;;;;4.10;3.20;;;;;;;18.96;62.95;99803.77;215686;1256;60455;-73
2023/07/31 21:23:15;;;;;;;4.20;3.20;;;;;;;18.93;62.76;99799.67;215490;1260;67110;-73
2023/07/31 21:28:12;;;;;;;3.60;3.10;;;;;;;18.86;62.91;99799.73;215600;1257;60502;-72
2023/07/31 21:33:07;;;;;;;5.10;3.50;;;;;;;18.83;63.37;99796.65;215614;1254;74155;-72
2023/07/31 21:38:01;;;;;;;4.50;3.10;;;;;;;18.79;63.42;99798.18;215762;1258;72492;-73
2023/07/31 21:42:56;;;;;;;3.50;3.20;;;;;;;18.72;63.78;99798.90;215770;1254;60567;-72
2023/07/31 21:48:01;;;;;;;4.20;3.10;;;;;;;18.62;64.14;99794.82;215657;1259;66979;-73
2023/07/31 21:53:04;;;;;;;5.70;3.90;;;;;;;18.52;64.30;99784.96;215909;1256;60499;-72
2023/07/31 21:58:00;;;;;;;5.10;3.80;;;;;;;18.43;64.51;99782.41;215600;1255;73699;-72
2023/07/31 22:02:54;;;;;;;5.10;4.00;;;;;;;18.38;64.71;99780.27;215663;1258;72882;-73
2023/07/31 22:33:26;;;;;;;4.20;3.80;;;;;;;17.75;65.87;99747.52;213470;1274;72934;-73
2023/07/31 22:38:46;;;;;;;9.40;4.50;;;;;;;17.62;66.07;99746.14;213575;1273;60600;-72
2023/07/31 23:08:39;;;;;;;6.30;4.60;;;;;;;17.64;66.80;99739.42;214474;1264;60584;-73
2023/07/31 23:27:21;;;;;;;8.30;4.10;;;;;;;17.75;66.81;99725.09;214223;1267;75589;-73
